createdAt,value
2023-11-02T00:00:36.138Z,99.90
2023-11-02T00:03:07.797Z,99.90
2023-11-02T00:05:45.377Z,99.90
2023-11-02T00:08:13.004Z,99.90
2023-11-02T00:10:41.619Z,99.90
2023-11-02T00:13:19.383Z,99.90
2023-11-02T00:15:47.406Z,99.90
2023-11-02T00:18:15.992Z,99.90
2023-11-02T00:20:44.944Z,99.90
2023-11-02T00:23:13.934Z,99.90
2023-11-02T00:25:51.459Z,99.90
2023-11-02T00:28:20.055Z,99.90
2023-11-02T00:30:49.669Z,99.90
2023-11-02T00:33:17.969Z,99.90
2023-11-02T00:35:46.536Z,99.90
2023-11-02T00:38:21.013Z,99.90
2023-11-02T00:40:48.899Z,99.90
2023-11-02T00:43:16.830Z,99.90
2023-11-02T00:45:44.637Z,99.90
2023-11-02T00:48:15.456Z,99.90
2023-11-02T00:51:02.491Z,99.90
2023-11-02T00:53:30.069Z,99.90
2023-11-02T00:55:57.778Z,99.90
2023-11-02T00:58:32.576Z,99.90
2023-11-02T01:01:00.504Z,99.90
2023-11-02T01:03:28.884Z,99.90
2023-11-02T01:05:57.197Z,99.90
2023-11-02T01:08:30.471Z,99.90
2023-11-02T01:10:58.148Z,99.90
2023-11-02T01:13:27.685Z,99.60
2023-11-02T01:16:11.633Z,99.80
2023-11-02T01:18:46.144Z,99.40
2023-11-02T01:21:16.505Z,99.30
2023-11-02T01:23:44.206Z,99.60
2023-11-02T01:26:30.219Z,99.50
2023-11-02T01:31:36.219Z,99.30
2023-11-02T01:42:13.306Z,98.00
2023-11-02T01:45:16.791Z,98.30
2023-11-02T01:47:55.520Z,98.30
2023-11-02T01:50:37.627Z,97.20
2023-11-02T01:53:08.397Z,96.30
2023-11-02T01:55:36.448Z,97.30
2023-11-02T01:58:05.331Z,97.80
2023-11-02T02:00:52.364Z,98.00
2023-11-02T02:03:43.482Z,97.90
2023-11-02T02:06:15.570Z,97.80
2023-11-02T02:08:56.995Z,97.80
2023-11-02T02:11:39.374Z,97.40
2023-11-02T02:14:36.323Z,97.30
2023-11-02T02:17:17.978Z,96.60
2023-11-02T02:19:51.800Z,96.70
2023-11-02T02:22:27.629Z,96.40
2023-11-02T02:27:50.136Z,95.20
2023-11-02T02:30:36.694Z,95.30
2023-11-02T02:33:06.836Z,95.90
2023-11-02T02:35:54.739Z,95.90
2023-11-02T02:38:26.624Z,95.90
2023-11-02T02:41:01.680Z,95.80
2023-11-02T02:43:30.949Z,96.00
2023-11-02T02:45:58.531Z,96.50
2023-11-02T02:48:27.385Z,96.20
2023-11-02T02:50:59.240Z,95.70
2023-11-02T02:53:29.915Z,94.90
2023-11-02T02:56:00.108Z,95.60
2023-11-02T02:58:28.535Z,95.20
2023-11-02T03:00:58.605Z,96.20
2023-11-02T03:03:27.824Z,94.30
2023-11-02T03:05:58.870Z,94.20
2023-11-02T03:08:28.267Z,94.60
2023-11-02T03:10:57.175Z,94.80
2023-11-02T03:13:32.690Z,95.10
2023-11-02T03:16:02.324Z,95.50
2023-11-02T03:18:36.029Z,94.90
2023-11-02T03:21:03.773Z,94.10
2023-11-02T03:23:41.504Z,92.80
2023-11-02T03:26:46.214Z,93.90
2023-11-02T03:29:27.794Z,93.00
2023-11-02T03:32:03.872Z,92.60
2023-11-02T03:34:40.117Z,92.90
2023-11-02T03:37:14.103Z,92.30
2023-11-02T03:40:00.216Z,91.00
2023-11-02T03:42:41.919Z,92.00
2023-11-02T03:45:12.208Z,91.40
2023-11-02T03:47:40.826Z,93.50
2023-11-02T03:50:11.663Z,92.90
2023-11-02T03:52:44.735Z,93.60
2023-11-02T03:55:30.679Z,93.60
2023-11-02T03:58:22.564Z,93.90
2023-11-02T04:01:13.439Z,93.70
2023-11-02T04:03:44.843Z,92.60
2023-11-02T04:06:20.701Z,92.40
2023-11-02T04:08:50.791Z,92.40
2023-11-02T04:11:32.699Z,93.20
2023-11-02T04:14:18.869Z,91.80
2023-11-02T04:16:46.471Z,92.50
2023-11-02T04:19:14.420Z,93.10
2023-11-02T04:21:45.260Z,93.00
2023-11-02T04:24:13.736Z,91.90
2023-11-02T04:26:41.873Z,92.20
2023-11-02T04:29:10.371Z,88.90
2023-11-02T04:31:38.546Z,91.20
2023-11-02T04:34:06.723Z,91.70
2023-11-02T04:36:34.429Z,91.10
2023-11-02T04:39:02.383Z,91.20
2023-11-02T04:41:30.177Z,92.20
2023-11-02T04:43:58.732Z,87.50
2023-11-02T04:46:26.445Z,91.40
2023-11-02T04:48:55.375Z,91.70
2023-11-02T04:51:23.552Z,92.20
2023-11-02T04:53:54.663Z,90.30
2023-11-02T04:56:22.492Z,90.20
2023-11-02T04:58:50.189Z,90.30
2023-11-02T05:01:18.167Z,91.30
2023-11-02T05:03:46.151Z,91.00
2023-11-02T05:06:18.173Z,90.70
2023-11-02T05:08:45.807Z,88.70
2023-11-02T05:11:16.471Z,90.50
2023-11-02T05:13:44.247Z,90.40
2023-11-02T05:16:12.716Z,91.40
2023-11-02T05:18:41.370Z,91.40
2023-11-02T05:21:13.667Z,91.10
2023-11-02T05:23:42.595Z,90.90
2023-11-02T05:26:10.540Z,91.80
2023-11-02T05:28:38.568Z,91.60
2023-11-02T05:31:07.343Z,90.50
2023-11-02T05:33:35.058Z,91.00
2023-11-02T05:36:02.745Z,91.50
2023-11-02T05:38:31.021Z,89.60
2023-11-02T05:40:59.621Z,87.70
2023-11-02T05:43:27.262Z,90.10
2023-11-02T05:45:55.019Z,91.50
2023-11-02T05:48:23.361Z,91.00
2023-11-02T05:50:51.136Z,91.40
2023-11-02T05:53:22.340Z,90.60
2023-11-02T05:55:50.014Z,90.90
2023-11-02T05:58:19.533Z,91.20
2023-11-02T06:00:47.724Z,91.50
2023-11-02T06:03:16.219Z,91.30
2023-11-02T06:05:44.442Z,91.10
2023-11-02T06:08:12.165Z,90.90
2023-11-02T06:10:40.071Z,91.30
2023-11-02T06:13:08.425Z,91.20
2023-11-02T06:15:38.062Z,91.10
2023-11-02T06:18:08.055Z,91.70
2023-11-02T06:20:36.179Z,91.70
2023-11-02T06:23:05.290Z,91.70
2023-11-02T06:25:34.441Z,91.50
2023-11-02T06:28:02.684Z,91.40
2023-11-02T06:30:30.911Z,90.90
2023-11-02T06:33:01.697Z,91.40
2023-11-02T06:35:31.918Z,91.20
2023-11-02T06:38:01.192Z,91.40
2023-11-02T06:40:29.944Z,91.10
2023-11-02T06:42:58.484Z,90.80
2023-11-02T06:45:28.909Z,90.90
2023-11-02T06:47:58.134Z,90.80
2023-11-02T06:50:25.826Z,91.50
2023-11-02T06:52:53.615Z,91.30
2023-11-02T06:55:21.910Z,91.40
2023-11-02T06:57:49.959Z,91.50
2023-11-02T07:00:18.069Z,91.50
2023-11-02T07:02:46.669Z,90.10
2023-11-02T07:05:14.460Z,90.40
2023-11-02T07:07:44.960Z,86.40
2023-11-02T07:10:15.894Z,89.80
2023-11-02T07:12:44.080Z,90.00
2023-11-02T07:15:12.739Z,90.20
2023-11-02T07:17:41.294Z,89.30
2023-11-02T07:20:09.406Z,86.00
2023-11-02T07:22:37.145Z,88.20
2023-11-02T07:25:05.926Z,90.40
2023-11-02T07:27:34.382Z,90.10
2023-11-02T07:30:02.158Z,89.20
2023-11-02T07:32:40.255Z,89.50
2023-11-02T07:35:10.001Z,88.40
2023-11-02T07:37:39.037Z,90.00
2023-11-02T07:40:08.168Z,89.30
2023-11-02T07:42:43.845Z,89.50
2023-11-02T07:45:12.610Z,88.70
2023-11-02T07:47:41.746Z,89.60
2023-11-02T07:50:09.604Z,88.00
2023-11-02T07:52:38.374Z,89.40
2023-11-02T07:55:06.329Z,84.50
2023-11-02T07:57:36.192Z,83.40
2023-11-02T08:00:04.564Z,85.70
2023-11-02T08:02:33.117Z,86.90
2023-11-02T08:05:00.866Z,89.00
2023-11-02T08:07:30.223Z,87.40
2023-11-02T08:09:58.490Z,86.90
2023-11-02T08:12:27.371Z,86.30
2023-11-02T08:14:55.847Z,89.70
2023-11-02T08:17:26.649Z,88.30
2023-11-02T08:19:54.337Z,89.80
2023-11-02T08:22:22.481Z,86.80
2023-11-02T08:24:52.971Z,88.00
2023-11-02T08:27:21.185Z,88.50
2023-11-02T08:29:49.449Z,87.50
2023-11-02T08:32:17.431Z,88.20
2023-11-02T08:34:45.081Z,89.10
2023-11-02T08:37:13.044Z,89.60
2023-11-02T08:39:42.174Z,88.30
2023-11-02T08:42:10.238Z,89.20
2023-11-02T08:44:45.963Z,88.90
2023-11-02T08:47:14.248Z,88.30
2023-11-02T08:49:42.803Z,88.70
2023-11-02T08:52:12.361Z,88.30
2023-11-02T08:54:41.382Z,88.90
2023-11-02T08:57:12.088Z,89.40
2023-11-02T08:59:42.906Z,89.90
2023-11-02T09:02:12.305Z,89.60
2023-11-02T09:04:44.191Z,87.70
2023-11-02T09:07:12.000Z,88.80
2023-11-02T09:09:39.891Z,88.90
2023-11-02T09:12:07.904Z,88.60
2023-11-02T09:14:39.436Z,89.00
2023-11-02T09:17:07.464Z,86.20
2023-11-02T09:19:36.190Z,87.60
2023-11-02T09:22:05.532Z,87.60
2023-11-02T09:24:33.675Z,88.50
2023-11-02T09:27:01.454Z,90.00
2023-11-02T09:29:29.491Z,89.00
2023-11-02T09:32:03.736Z,87.70
2023-11-02T09:34:33.429Z,88.10
2023-11-02T09:37:02.544Z,87.60
2023-11-02T09:39:33.451Z,87.80
2023-11-02T09:42:03.259Z,88.70
2023-11-02T09:44:32.443Z,88.70
2023-11-02T09:47:00.323Z,88.40
2023-11-02T09:49:29.001Z,89.50
2023-11-02T09:51:57.352Z,89.90
2023-11-02T09:54:34.276Z,89.90
2023-11-02T09:57:10.224Z,89.70
2023-11-02T09:59:44.722Z,90.00
2023-11-02T10:02:14.080Z,90.00
2023-11-02T10:04:45.826Z,90.00
2023-11-02T10:07:14.070Z,90.00
2023-11-02T10:09:46.564Z,90.60
2023-11-02T10:12:15.084Z,90.40
2023-11-02T10:14:43.138Z,89.10
2023-11-02T10:17:15.586Z,88.80
2023-11-02T10:19:44.595Z,89.70
2023-11-02T10:22:13.113Z,90.20
2023-11-02T10:24:40.970Z,90.50
2023-11-02T10:27:10.268Z,90.30
2023-11-02T10:29:38.047Z,90.30
2023-11-02T10:32:06.149Z,90.30
2023-11-02T10:34:38.189Z,90.40
2023-11-02T10:37:09.135Z,90.50
2023-11-02T10:39:40.856Z,90.50
2023-11-02T10:42:08.673Z,90.40
2023-11-02T10:44:40.008Z,90.60
2023-11-02T10:47:08.896Z,90.70
2023-11-02T10:49:40.192Z,90.70
2023-11-02T10:52:14.531Z,90.80
2023-11-02T10:54:52.869Z,90.90
2023-11-02T10:57:21.083Z,91.00
2023-11-02T10:59:48.953Z,91.10
2023-11-02T11:02:18.841Z,91.20
2023-11-02T11:04:51.380Z,91.30
2023-11-02T11:07:20.296Z,91.30
2023-11-02T11:09:52.514Z,91.40
2023-11-02T11:12:21.151Z,91.50
2023-11-02T11:14:50.078Z,91.50
2023-11-02T11:17:18.618Z,91.60
2023-11-02T11:19:47.824Z,91.80
2023-11-02T11:22:22.760Z,91.90
2023-11-02T11:25:10.603Z,91.90
2023-11-02T11:27:40.338Z,91.90
2023-11-02T11:30:23.407Z,92.00
2023-11-02T11:32:52.133Z,92.10
2023-11-02T11:35:20.722Z,92.20
2023-11-02T11:37:59.865Z,92.30
2023-11-02T11:40:34.037Z,92.30
2023-11-02T11:43:17.618Z,92.40
2023-11-02T11:45:48.722Z,92.50
2023-11-02T11:48:35.616Z,92.50
2023-11-02T11:51:04.670Z,92.70
2023-11-02T11:53:32.827Z,92.70
2023-11-02T11:56:03.278Z,92.80
2023-11-02T11:58:39.406Z,92.90
2023-11-02T12:01:07.922Z,93.00
2023-11-02T12:03:41.663Z,93.10
2023-11-02T12:06:15.143Z,93.20
2023-11-02T12:08:51.602Z,93.20
2023-11-02T12:11:25.791Z,93.30
2023-11-02T12:13:55.458Z,93.40
2023-11-02T12:16:24.474Z,93.50
2023-11-02T12:18:53.648Z,93.80
2023-11-02T12:21:23.253Z,94.00
2023-11-02T12:23:52.612Z,94.10
2023-11-02T12:26:21.173Z,94.10
2023-11-02T12:28:53.123Z,94.30
2023-11-02T12:31:26.549Z,94.40
2023-11-02T12:33:55.351Z,94.40
2023-11-02T12:36:24.496Z,94.70
2023-11-02T12:38:53.045Z,94.70
2023-11-02T12:41:25.822Z,94.70
2023-11-02T12:44:11.160Z,94.80
2023-11-02T12:46:39.749Z,94.90
2023-11-02T12:49:12.757Z,94.80
2023-11-02T12:51:41.680Z,94.80
2023-11-02T12:54:10.444Z,94.70
2023-11-02T12:56:38.469Z,94.80
2023-11-02T12:59:11.537Z,94.90
2023-11-02T13:02:00.494Z,94.90
2023-11-02T13:04:47.637Z,94.80
2023-11-02T13:07:23.004Z,94.90
2023-11-02T13:10:01.044Z,94.90
2023-11-02T13:12:29.323Z,95.10
2023-11-02T13:14:57.628Z,94.90
2023-11-02T13:17:26.127Z,95.10
2023-11-02T13:19:53.990Z,95.20
2023-11-02T13:22:21.707Z,95.20
2023-11-02T13:24:50.160Z,95.30
2023-11-02T13:27:19.846Z,95.40
2023-11-02T13:29:49.053Z,95.40
2023-11-02T13:32:16.762Z,95.40
2023-11-02T13:34:45.625Z,95.50
2023-11-02T13:37:14.316Z,95.60
2023-11-02T13:39:42.050Z,95.60
2023-11-02T13:42:10.218Z,95.50
2023-11-02T13:44:40.950Z,95.60
2023-11-02T13:47:09.134Z,95.50
2023-11-02T13:49:38.454Z,95.90
2023-11-02T13:52:06.386Z,95.80
2023-11-02T13:54:35.472Z,95.80
2023-11-02T13:57:03.419Z,95.90
2023-11-02T13:59:32.121Z,96.10
2023-11-02T14:02:00.722Z,96.20
2023-11-02T14:04:28.659Z,96.50
2023-11-02T14:06:57.541Z,96.50
2023-11-02T14:09:25.582Z,96.50
2023-11-02T14:11:53.295Z,96.50
2023-11-02T14:14:21.314Z,96.50
2023-11-02T14:16:49.355Z,96.80
2023-11-02T14:19:17.425Z,97.00
2023-11-02T14:21:45.996Z,96.80
2023-11-02T14:24:14.593Z,96.90
2023-11-02T14:26:42.456Z,97.20
2023-11-02T14:29:10.181Z,96.90
2023-11-02T14:31:38.649Z,96.90
2023-11-02T14:34:07.332Z,96.90
2023-11-02T14:36:37.104Z,97.00
2023-11-02T14:39:05.459Z,97.20
2023-11-02T14:41:34.357Z,97.20
2023-11-02T14:44:02.081Z,97.30
2023-11-02T14:46:29.735Z,97.20
2023-11-02T14:48:57.513Z,97.20
2023-11-02T14:51:25.256Z,97.30
2023-11-02T14:53:54.929Z,97.20
2023-11-02T14:56:25.073Z,97.30
2023-11-02T14:58:53.341Z,97.40
2023-11-02T15:01:21.080Z,97.60
2023-11-02T15:03:50.389Z,97.70
2023-11-02T15:06:24.691Z,97.80
2023-11-02T15:09:01.079Z,97.70
2023-11-02T15:11:36.080Z,97.80
2023-11-02T15:14:04.142Z,97.90
2023-11-02T15:16:33.695Z,98.10
2023-11-02T15:19:01.726Z,98.70
2023-11-02T15:21:30.385Z,98.60
2023-11-02T15:23:59.040Z,98.60
2023-11-02T15:26:27.873Z,98.60
2023-11-02T15:28:58.271Z,98.90
2023-11-02T15:31:27.864Z,98.90
2023-11-02T15:33:58.024Z,98.80
2023-11-02T15:36:25.968Z,98.80
2023-11-02T15:38:54.596Z,98.90
2023-11-02T15:41:23.883Z,98.90
2023-11-02T15:43:54.645Z,98.80
2023-11-02T15:46:22.345Z,98.90
2023-11-02T15:48:51.918Z,98.90
2023-11-02T15:51:20.490Z,99.10
2023-11-02T15:53:48.875Z,99.30
2023-11-02T15:56:17.824Z,99.20
2023-11-02T15:58:45.712Z,99.50
2023-11-02T16:01:15.651Z,99.20
2023-11-02T16:03:43.750Z,99.00
2023-11-02T16:06:12.496Z,99.00
2023-11-02T16:08:40.190Z,99.40
2023-11-02T16:11:08.033Z,99.50
2023-11-02T16:13:35.723Z,99.60
2023-11-02T16:16:10.255Z,99.80
2023-11-02T16:18:38.311Z,99.70
2023-11-02T16:21:06.546Z,99.90
2023-11-02T16:23:34.798Z,99.70
2023-11-02T16:26:02.962Z,99.80
2023-11-02T16:28:32.514Z,99.90
2023-11-02T16:31:01.165Z,99.90
2023-11-02T16:33:29.551Z,99.90
2023-11-02T16:35:57.308Z,99.80
2023-11-02T16:38:25.257Z,99.90
2023-11-02T16:40:52.994Z,99.90
2023-11-02T16:43:21.387Z,99.90
2023-11-02T16:45:49.086Z,99.90
2023-11-02T16:48:18.016Z,99.90
2023-11-02T16:50:46.251Z,99.90
2023-11-02T16:53:13.946Z,99.90
2023-11-02T16:55:42.620Z,99.90
2023-11-02T16:58:10.400Z,99.90
2023-11-02T17:00:39.563Z,99.90
2023-11-02T17:03:11.057Z,99.90
2023-11-02T17:05:39.268Z,99.90
2023-11-02T17:08:07.072Z,99.90
2023-11-02T17:10:37.087Z,99.90
2023-11-02T17:13:05.149Z,99.90
2023-11-02T17:15:33.514Z,99.90
2023-11-02T17:18:01.296Z,99.90
2023-11-02T17:20:28.993Z,99.90
2023-11-02T17:22:57.602Z,99.90
2023-11-02T17:25:26.177Z,99.90
2023-11-02T17:27:55.944Z,99.90
2023-11-02T17:30:24.590Z,99.90
2023-11-02T17:32:54.297Z,99.90
2023-11-02T17:35:23.589Z,99.90
2023-11-02T17:37:51.254Z,99.90
2023-11-02T17:40:21.981Z,99.90
2023-11-02T17:42:50.850Z,99.90
2023-11-02T17:45:18.749Z,99.90
2023-11-02T17:47:46.416Z,99.90
2023-11-02T17:50:14.930Z,99.90
2023-11-02T17:52:43.076Z,99.90
2023-11-02T17:55:11.100Z,99.90
2023-11-02T17:57:39.639Z,99.90
2023-11-02T18:00:09.355Z,99.90
2023-11-02T18:02:37.092Z,99.90
2023-11-02T18:05:06.310Z,99.90
2023-11-02T18:07:34.648Z,99.90
2023-11-02T18:10:02.438Z,99.90
2023-11-02T18:26:15.744Z,99.90
2023-11-02T18:28:44.148Z,99.90
2023-11-02T18:31:11.886Z,99.90
2023-11-02T19:33:05.697Z,99.90
2023-11-02T19:35:33.502Z,99.90
2023-11-02T19:38:02.356Z,99.90
2023-11-02T19:40:30.045Z,99.90
2023-11-02T19:42:57.895Z,99.90
2023-11-02T19:45:25.934Z,99.90
2023-11-02T19:47:53.642Z,99.90
2023-11-02T19:50:21.644Z,99.90
2023-11-02T19:52:50.549Z,99.90
2023-11-02T19:55:18.472Z,99.90
2023-11-02T19:57:50.097Z,99.90
2023-11-02T20:00:19.140Z,99.90
2023-11-02T20:02:49.020Z,99.90
2023-11-02T20:05:17.900Z,99.90
2023-11-02T20:07:45.685Z,99.90
2023-11-02T20:10:14.689Z,99.90
2023-11-02T20:12:43.876Z,99.90
2023-11-02T20:15:12.893Z,99.90
2023-11-02T20:17:41.272Z,99.90
2023-11-02T20:20:10.727Z,99.90
2023-11-02T20:22:39.274Z,99.90
2023-11-02T20:25:07.081Z,99.90
2023-11-02T20:27:34.842Z,99.90
2023-11-02T20:30:02.949Z,99.90
2023-11-02T20:32:30.703Z,99.90
2023-11-02T20:34:59.207Z,99.90
2023-11-02T20:37:26.944Z,99.90
2023-11-02T20:39:54.623Z,99.90
2023-11-02T20:42:22.433Z,99.90
2023-11-02T20:44:50.097Z,99.90
2023-11-02T20:47:17.867Z,99.90
2023-11-02T20:49:47.390Z,99.90
2023-11-02T20:52:15.318Z,99.90
2023-11-02T20:54:43.036Z,99.90
2023-11-02T20:57:10.785Z,99.90
2023-11-02T20:59:38.572Z,99.90
2023-11-02T21:32:15.675Z,99.90
2023-11-02T21:34:43.812Z,99.90
2023-11-02T21:37:12.638Z,99.90
2023-11-02T21:53:17.379Z,99.90
2023-11-02T21:55:45.041Z,99.90
2023-11-02T21:58:12.947Z,99.90
2023-11-02T22:00:40.965Z,99.90
2023-11-02T22:03:08.908Z,99.90
2023-11-02T22:05:36.682Z,99.90
2023-11-02T22:08:04.856Z,99.90
2023-11-02T22:10:32.547Z,99.90
2023-11-02T22:26:48.826Z,99.90
2023-11-02T23:02:22.564Z,99.90
2023-11-02T23:04:51.032Z,99.90
2023-11-02T23:07:19.577Z,99.90
2023-11-02T23:09:47.410Z,99.90
2023-11-02T23:12:16.465Z,99.90
2023-11-02T23:14:44.976Z,99.90
2023-11-02T23:17:12.799Z,99.90
2023-11-02T23:19:41.787Z,99.90
2023-11-02T23:22:10.433Z,99.90
2023-11-02T23:24:39.125Z,99.90
2023-11-02T23:27:07.663Z,99.90
2023-11-02T23:29:36.099Z,99.90
2023-11-02T23:32:04.883Z,99.90
2023-11-02T23:34:33.636Z,99.90
2023-11-02T23:37:02.237Z,99.90
2023-11-02T23:39:30.793Z,99.90
2023-11-02T23:41:58.461Z,99.90
2023-11-02T23:44:27.074Z,99.90
2023-11-02T23:46:55.182Z,99.90
2023-11-02T23:49:23.073Z,99.90
2023-11-02T23:51:51.171Z,99.90
2023-11-02T23:54:21.250Z,99.90
2023-11-02T23:56:48.962Z,99.90
2023-11-02T23:59:17.126Z,99.90
